sensor_id;sensor_type;location;lat;lon;timestamp;P1;P2;P0
76238;PMS7003;65043;48.392;-4.472;2023-08-06T00:01:42;7.00;3.00;2.00
76238;PMS7003;65043;48.392;-4.472;2023-08-06T00:04:07;8.50;6.00;1.50
76238;PMS7003;65043;48.392;-4.472;2023-08-06T00:06:35;8.00;5.00;2.25
76238;PMS7003;65043;48.392;-4.472;2023-08-06T00:09:06;8.00;5.75;2.00
76238;PMS7003;65043;48.392;-4.472;2023-08-06T00:11:38;9.00;5.50;1.75
76238;PMS7003;65043;48.392;-4.472;2023-08-06T00:14:11;5.50;4.50;2.00
76238;PMS7003;65043;48.392;-4.472;2023-08-06T00:16:47;10.25;3.50;1.75
76238;PMS7003;65043;48.392;-4.472;2023-08-06T00:19:13;4.75;2.25;1.00
76238;PMS7003;65043;48.392;-4.472;2023-08-06T00:21:41;10.50;4.00;1.50
76238;PMS7003;65043;48.392;-4.472;2023-08-06T00:24:09;7.50;6.75;2.25
76238;PMS7003;65043;48.392;-4.472;2023-08-06T00:26:35;11.50;5.25;1.75
76238;PMS7003;65043;48.392;-4.472;2023-08-06T00:29:08;6.75;3.50;1.75
76238;PMS7003;65043;48.392;-4.472;2023-08-06T00:31:33;9.75;5.25;3.25
76238;PMS7003;65043;48.392;-4.472;2023-08-06T00:34:01;9.50;6.00;2.00
76238;PMS7003;65043;48.392;-4.472;2023-08-06T00:36:27;5.25;2.00;0.50
76238;PMS7003;65043;48.392;-4.472;2023-08-06T00:38:54;5.00;3.75;2.25
76238;PMS7003;65043;48.392;-4.472;2023-08-06T00:41:20;6.75;4.50;2.00
76238;PMS7003;65043;48.392;-4.472;2023-08-06T00:43:52;7.25;6.25;3.50
76238;PMS7003;65043;48.392;-4.472;2023-08-06T00:46:17;7.00;5.75;2.75
76238;PMS7003;65043;48.392;-4.472;2023-08-06T00:48:45;5.25;5.00;2.00
76238;PMS7003;65043;48.392;-4.472;2023-08-06T00:51:12;9.50;4.25;1.50
76238;PMS7003;65043;48.392;-4.472;2023-08-06T00:53:38;7.75;5.50;1.00
76238;PMS7003;65043;48.392;-4.472;2023-08-06T00:56:07;8.25;6.75;2.25
76238;PMS7003;65043;48.392;-4.472;2023-08-06T00:58:33;14.00;6.75;2.00
76238;PMS7003;65043;48.392;-4.472;2023-08-06T01:01:00;7.50;4.25;2.00
76238;PMS7003;65043;48.392;-4.472;2023-08-06T01:03:26;9.00;6.00;2.00
76238;PMS7003;65043;48.392;-4.472;2023-08-06T01:05:51;7.25;5.50;2.50
76238;PMS7003;65043;48.392;-4.472;2023-08-06T01:08:28;6.75;4.50;2.00
76238;PMS7003;65043;48.392;-4.472;2023-08-06T01:13:59;6.75;4.25;1.50
76238;PMS7003;65043;48.392;-4.472;2023-08-06T01:16:30;10.00;3.25;2.00
76238;PMS7003;65043;48.392;-4.472;2023-08-06T01:18:56;9.00;5.00;1.75
76238;PMS7003;65043;48.392;-4.472;2023-08-06T01:21:23;6.25;3.25;1.50
76238;PMS7003;65043;48.392;-4.472;2023-08-06T01:23:51;8.25;6.00;2.25
76238;PMS7003;65043;48.392;-4.472;2023-08-06T01:26:20;6.75;6.75;2.00
76238;PMS7003;65043;48.392;-4.472;2023-08-06T01:31:53;9.75;5.75;1.75
76238;PMS7003;65043;48.392;-4.472;2023-08-06T01:34:24;6.25;4.75;2.00
76238;PMS7003;65043;48.392;-4.472;2023-08-06T01:36:53;11.00;3.00;1.25
76238;PMS7003;65043;48.392;-4.472;2023-08-06T01:39:19;10.00;6.25;1.50
76238;PMS7003;65043;48.392;-4.472;2023-08-06T01:41:47;5.75;2.00;1.00
76238;PMS7003;65043;48.392;-4.472;2023-08-06T01:44:13;12.25;6.25;2.00
76238;PMS7003;65043;48.392;-4.472;2023-08-06T01:46:39;10.00;3.25;1.75
76238;PMS7003;65043;48.392;-4.472;2023-08-06T01:49:05;4.25;1.75;1.00
76238;PMS7003;65043;48.392;-4.472;2023-08-06T01:51:33;7.75;5.75;1.75
76238;PMS7003;65043;48.392;-4.472;2023-08-06T01:53:58;7.50;4.00;1.75
76238;PMS7003;65043;48.392;-4.472;2023-08-06T01:56:24;6.00;3.50;2.75
76238;PMS7003;65043;48.392;-4.472;2023-08-06T01:58:50;8.50;3.00;1.00
76238;PMS7003;65043;48.392;-4.472;2023-08-06T02:01:15;6.75;3.75;1.75
76238;PMS7003;65043;48.392;-4.472;2023-08-06T02:03:41;3.75;3.75;2.00
76238;PMS7003;65043;48.392;-4.472;2023-08-06T02:06:07;9.75;5.00;2.00
76238;PMS7003;65043;48.392;-4.472;2023-08-06T02:08:35;4.75;2.50;1.00
76238;PMS7003;65043;48.392;-4.472;2023-08-06T02:11:00;5.50;4.75;1.00
76238;PMS7003;65043;48.392;-4.472;2023-08-06T02:13:27;11.00;6.00;2.25
76238;PMS7003;65043;48.392;-4.472;2023-08-06T02:15:53;11.00;4.50;1.75
76238;PMS7003;65043;48.392;-4.472;2023-08-06T02:18:18;6.75;6.50;3.00
76238;PMS7003;65043;48.392;-4.472;2023-08-06T02:20:55;7.75;6.50;2.00
76238;PMS7003;65043;48.392;-4.472;2023-08-06T02:23:24;5.50;4.25;2.00
76238;PMS7003;65043;48.392;-4.472;2023-08-06T02:25:57;9.75;2.75;1.00
76238;PMS7003;65043;48.392;-4.472;2023-08-06T02:28:24;10.00;6.50;2.50
76238;PMS7003;65043;48.392;-4.472;2023-08-06T02:30:52;6.50;4.25;2.50
76238;PMS7003;65043;48.392;-4.472;2023-08-06T02:33:18;10.50;6.25;2.00
76238;PMS7003;65043;48.392;-4.472;2023-08-06T02:35:43;11.50;6.75;2.00
76238;PMS7003;65043;48.392;-4.472;2023-08-06T02:38:09;7.00;4.00;1.00
76238;PMS7003;65043;48.392;-4.472;2023-08-06T02:40:38;4.50;3.00;1.75
76238;PMS7003;65043;48.392;-4.472;2023-08-06T02:43:08;9.25;4.50;2.00
76238;PMS7003;65043;48.392;-4.472;2023-08-06T02:45:34;2.50;1.50;0.75
76238;PMS7003;65043;48.392;-4.472;2023-08-06T02:47:59;4.00;4.00;2.00
76238;PMS7003;65043;48.392;-4.472;2023-08-06T02:50:25;8.75;6.00;2.25
76238;PMS7003;65043;48.392;-4.472;2023-08-06T02:52:50;9.00;5.75;1.00
76238;PMS7003;65043;48.392;-4.472;2023-08-06T02:55:20;6.75;5.00;1.75
76238;PMS7003;65043;48.392;-4.472;2023-08-06T02:57:46;10.50;4.50;1.00
76238;PMS7003;65043;48.392;-4.472;2023-08-06T03:00:11;7.50;4.25;1.25
76238;PMS7003;65043;48.392;-4.472;2023-08-06T03:02:37;5.00;2.00;1.00
76238;PMS7003;65043;48.392;-4.472;2023-08-06T03:05:03;5.50;3.75;1.00
76238;PMS7003;65043;48.392;-4.472;2023-08-06T03:07:28;4.25;4.25;1.25
76238;PMS7003;65043;48.392;-4.472;2023-08-06T03:09:54;7.00;4.50;1.75
76238;PMS7003;65043;48.392;-4.472;2023-08-06T03:12:20;10.50;6.75;1.75
76238;PMS7003;65043;48.392;-4.472;2023-08-06T03:14:45;7.50;3.00;1.00
76238;PMS7003;65043;48.392;-4.472;2023-08-06T03:17:13;7.00;4.25;1.25
76238;PMS7003;65043;48.392;-4.472;2023-08-06T03:19:41;7.25;4.00;1.25
76238;PMS7003;65043;48.392;-4.472;2023-08-06T03:22:08;6.50;2.75;1.00
76238;PMS7003;65043;48.392;-4.472;2023-08-06T03:24:33;5.50;4.50;1.75
76238;PMS7003;65043;48.392;-4.472;2023-08-06T03:26:59;4.50;3.50;1.25
76238;PMS7003;65043;48.392;-4.472;2023-08-06T03:29:24;8.50;4.25;2.00
76238;PMS7003;65043;48.392;-4.472;2023-08-06T03:31:50;4.75;2.75;1.75
76238;PMS7003;65043;48.392;-4.472;2023-08-06T03:34:17;7.25;4.25;1.25
76238;PMS7003;65043;48.392;-4.472;2023-08-06T03:36:42;4.00;3.75;1.75
76238;PMS7003;65043;48.392;-4.472;2023-08-06T03:39:08;6.25;3.50;0.75
76238;PMS7003;65043;48.392;-4.472;2023-08-06T03:41:36;8.00;5.00;1.25
76238;PMS7003;65043;48.392;-4.472;2023-08-06T03:44:01;9.25;2.00;0.75
76238;PMS7003;65043;48.392;-4.472;2023-08-06T03:46:29;3.25;3.25;1.00
76238;PMS7003;65043;48.392;-4.472;2023-08-06T03:48:58;7.75;3.00;1.75
76238;PMS7003;65043;48.392;-4.472;2023-08-06T03:51:24;5.50;5.50;1.75
76238;PMS7003;65043;48.392;-4.472;2023-08-06T03:53:50;5.25;3.00;0.75
76238;PMS7003;65043;48.392;-4.472;2023-08-06T03:56:15;8.50;6.25;1.75
76238;PMS7003;65043;48.392;-4.472;2023-08-06T03:58:41;4.00;2.50;1.00
76238;PMS7003;65043;48.392;-4.472;2023-08-06T04:01:09;3.25;3.00;1.00
76238;PMS7003;65043;48.392;-4.472;2023-08-06T04:03:34;9.00;5.50;1.50
76238;PMS7003;65043;48.392;-4.472;2023-08-06T04:06:02;5.75;4.50;2.00
76238;PMS7003;65043;48.392;-4.472;2023-08-06T04:08:28;4.25;2.50;1.75
76238;PMS7003;65043;48.392;-4.472;2023-08-06T04:10:53;6.25;4.75;1.75
76238;PMS7003;65043;48.392;-4.472;2023-08-06T04:13:19;14.00;4.00;2.00
76238;PMS7003;65043;48.392;-4.472;2023-08-06T04:15:45;11.00;5.25;2.00
76238;PMS7003;65043;48.392;-4.472;2023-08-06T04:18:13;4.25;3.50;1.25
76238;PMS7003;65043;48.392;-4.472;2023-08-06T04:20:43;9.50;5.00;2.50
76238;PMS7003;65043;48.392;-4.472;2023-08-06T04:23:09;4.50;1.75;1.75
76238;PMS7003;65043;48.392;-4.472;2023-08-06T04:25:38;9.00;5.00;2.00
76238;PMS7003;65043;48.392;-4.472;2023-08-06T04:28:04;13.00;6.75;2.00
76238;PMS7003;65043;48.392;-4.472;2023-08-06T04:30:29;6.25;6.00;3.00
76238;PMS7003;65043;48.392;-4.472;2023-08-06T04:32:56;11.00;5.50;1.75
76238;PMS7003;65043;48.392;-4.472;2023-08-06T04:35:22;4.75;4.00;1.25
76238;PMS7003;65043;48.392;-4.472;2023-08-06T04:37:47;4.75;3.00;2.00
76238;PMS7003;65043;48.392;-4.472;2023-08-06T04:40:13;8.50;3.50;2.75
76238;PMS7003;65043;48.392;-4.472;2023-08-06T04:42:41;5.75;3.00;1.75
76238;PMS7003;65043;48.392;-4.472;2023-08-06T04:45:06;8.50;4.50;2.00
76238;PMS7003;65043;48.392;-4.472;2023-08-06T04:47:32;3.50;2.50;1.00
76238;PMS7003;65043;48.392;-4.472;2023-08-06T04:50:00;5.00;2.75;2.00
76238;PMS7003;65043;48.392;-4.472;2023-08-06T04:52:26;5.75;4.25;2.00
76238;PMS7003;65043;48.392;-4.472;2023-08-06T04:54:53;6.25;4.75;1.25
76238;PMS7003;65043;48.392;-4.472;2023-08-06T04:57:19;7.00;5.25;1.75
76238;PMS7003;65043;48.392;-4.472;2023-08-06T04:59:45;7.00;3.75;1.75
76238;PMS7003;65043;48.392;-4.472;2023-08-06T05:02:10;6.25;4.50;1.50
76238;PMS7003;65043;48.392;-4.472;2023-08-06T05:04:36;9.25;6.25;2.25
76238;PMS7003;65043;48.392;-4.472;2023-08-06T05:07:05;4.25;2.00;1.00
76238;PMS7003;65043;48.392;-4.472;2023-08-06T05:09:33;4.50;4.50;1.00
76238;PMS7003;65043;48.392;-4.472;2023-08-06T05:12:04;3.75;3.00;1.25
76238;PMS7003;65043;48.392;-4.472;2023-08-06T05:14:30;6.25;3.25;1.50
76238;PMS7003;65043;48.392;-4.472;2023-08-06T05:16:56;49.00;38.00;23.50
76238;PMS7003;65043;48.392;-4.472;2023-08-06T05:19:21;88.25;67.00;37.50
76238;PMS7003;65043;48.392;-4.472;2023-08-06T05:21:47;66.00;51.75;29.25
76238;PMS7003;65043;48.392;-4.472;2023-08-06T05:24:12;65.25;47.25;27.00
76238;PMS7003;65043;48.392;-4.472;2023-08-06T05:26:38;42.50;37.75;23.75
76238;PMS7003;65043;48.392;-4.472;2023-08-06T05:29:03;26.75;19.75;12.50
76238;PMS7003;65043;48.392;-4.472;2023-08-06T05:31:31;11.75;7.25;4.50
76238;PMS7003;65043;48.392;-4.472;2023-08-06T05:34:04;11.50;5.25;2.50
76238;PMS7003;65043;48.392;-4.472;2023-08-06T05:36:32;5.50;5.00;2.00
76238;PMS7003;65043;48.392;-4.472;2023-08-06T05:39:00;6.75;4.25;1.75
76238;PMS7003;65043;48.392;-4.472;2023-08-06T05:41:30;8.25;5.25;2.00
76238;PMS7003;65043;48.392;-4.472;2023-08-06T05:44:03;4.25;3.00;1.00
76238;PMS7003;65043;48.392;-4.472;2023-08-06T05:46:34;11.00;4.50;1.75
76238;PMS7003;65043;48.392;-4.472;2023-08-06T05:49:02;4.00;2.75;1.00
76238;PMS7003;65043;48.392;-4.472;2023-08-06T05:51:31;4.00;2.50;1.25
76238;PMS7003;65043;48.392;-4.472;2023-08-06T05:53:56;4.00;3.00;2.00
76238;PMS7003;65043;48.392;-4.472;2023-08-06T05:56:32;6.75;5.75;1.75
76238;PMS7003;65043;48.392;-4.472;2023-08-06T05:59:00;9.00;5.75;2.00
76238;PMS7003;65043;48.392;-4.472;2023-08-06T06:01:28;5.25;2.75;2.00
76238;PMS7003;65043;48.392;-4.472;2023-08-06T06:04:21;4.50;3.50;2.00
76238;PMS7003;65043;48.392;-4.472;2023-08-06T06:06:49;8.25;2.50;1.00
76238;PMS7003;65043;48.392;-4.472;2023-08-06T06:09:15;7.50;4.25;1.75
76238;PMS7003;65043;48.392;-4.472;2023-08-06T06:11:40;55.25;43.00;26.75
76238;PMS7003;65043;48.392;-4.472;2023-08-06T06:14:06;73.00;55.25;34.00
76238;PMS7003;65043;48.392;-4.472;2023-08-06T06:16:34;33.25;30.75;18.00
76238;PMS7003;65043;48.392;-4.472;2023-08-06T06:18:59;53.50;38.25;22.50
76238;PMS7003;65043;48.392;-4.472;2023-08-06T06:21:25;51.50;41.75;25.25
76238;PMS7003;65043;48.392;-4.472;2023-08-06T06:23:50;20.25;15.75;10.00
76238;PMS7003;65043;48.392;-4.472;2023-08-06T06:26:18;16.25;12.00;7.00
76238;PMS7003;65043;48.392;-4.472;2023-08-06T06:28:44;9.50;6.75;3.50
76238;PMS7003;65043;48.392;-4.472;2023-08-06T06:31:10;7.75;5.00;2.00
76238;PMS7003;65043;48.392;-4.472;2023-08-06T06:33:35;3.25;2.25;1.25
76238;PMS7003;65043;48.392;-4.472;2023-08-06T06:36:10;6.25;3.00;2.00
76238;PMS7003;65043;48.392;-4.472;2023-08-06T06:39:18;3.50;2.75;1.25
76238;PMS7003;65043;48.392;-4.472;2023-08-06T06:42:15;5.75;2.25;1.75
76238;PMS7003;65043;48.392;-4.472;2023-08-06T06:44:44;1.25;0.50;0.00
76238;PMS7003;65043;48.392;-4.472;2023-08-06T06:47:12;5.50;4.25;1.25
76238;PMS7003;65043;48.392;-4.472;2023-08-06T06:49:38;10.75;4.50;1.50
76238;PMS7003;65043;48.392;-4.472;2023-08-06T06:52:03;5.25;3.50;1.75
76238;PMS7003;65043;48.392;-4.472;2023-08-06T06:54:29;8.50;2.25;1.00
76238;PMS7003;65043;48.392;-4.472;2023-08-06T06:56:57;5.00;2.00;1.00
76238;PMS7003;65043;48.392;-4.472;2023-08-06T06:59:27;2.00;1.75;1.00
76238;PMS7003;65043;48.392;-4.472;2023-08-06T07:01:52;3.00;1.75;0.75
76238;PMS7003;65043;48.392;-4.472;2023-08-06T07:04:18;2.75;2.75;0.75
76238;PMS7003;65043;48.392;-4.472;2023-08-06T07:06:46;4.75;4.50;1.75
76238;PMS7003;65043;48.392;-4.472;2023-08-06T07:09:12;4.00;2.25;1.00
76238;PMS7003;65043;48.392;-4.472;2023-08-06T07:11:43;9.25;5.25;2.25
76238;PMS7003;65043;48.392;-4.472;2023-08-06T07:14:09;3.25;3.00;1.50
76238;PMS7003;65043;48.392;-4.472;2023-08-06T07:16:40;4.00;4.00;1.25
76238;PMS7003;65043;48.392;-4.472;2023-08-06T07:19:05;4.75;2.50;0.75
76238;PMS7003;65043;48.392;-4.472;2023-08-06T07:21:31;2.50;2.50;1.50
76238;PMS7003;65043;48.392;-4.472;2023-08-06T07:24:07;3.00;2.25;1.00
76238;PMS7003;65043;48.392;-4.472;2023-08-06T07:26:37;4.25;2.00;1.00
76238;PMS7003;65043;48.392;-4.472;2023-08-06T07:29:03;6.00;2.00;1.00
76238;PMS7003;65043;48.392;-4.472;2023-08-06T07:31:28;3.00;2.50;1.00
76238;PMS7003;65043;48.392;-4.472;2023-08-06T07:34:03;2.75;1.00;1.00
76238;PMS7003;65043;48.392;-4.472;2023-08-06T07:36:39;3.75;3.25;1.00
76238;PMS7003;65043;48.392;-4.472;2023-08-06T07:39:15;3.00;2.00;1.00
76238;PMS7003;65043;48.392;-4.472;2023-08-06T07:41:41;2.25;2.25;2.00
76238;PMS7003;65043;48.392;-4.472;2023-08-06T07:44:07;3.50;3.50;1.00
76238;PMS7003;65043;48.392;-4.472;2023-08-06T07:46:43;3.25;2.25;1.00
76238;PMS7003;65043;48.392;-4.472;2023-08-06T07:49:10;3.75;1.25;0.00
76238;PMS7003;65043;48.392;-4.472;2023-08-06T07:51:45;5.75;3.25;2.00
76238;PMS7003;65043;48.392;-4.472;2023-08-06T07:54:26;3.00;3.00;2.00
76238;PMS7003;65043;48.392;-4.472;2023-08-06T07:57:16;2.50;1.50;1.25
76238;PMS7003;65043;48.392;-4.472;2023-08-06T07:59:42;3.00;2.00;1.00
76238;PMS7003;65043;48.392;-4.472;2023-08-06T08:02:10;4.50;2.25;1.00
76238;PMS7003;65043;48.392;-4.472;2023-08-06T08:04:38;3.25;2.00;1.00
76238;PMS7003;65043;48.392;-4.472;2023-08-06T08:07:09;3.50;2.00;1.00
76238;PMS7003;65043;48.392;-4.472;2023-08-06T08:09:52;1.50;1.00;0.50
76238;PMS7003;65043;48.392;-4.472;2023-08-06T08:12:30;2.00;2.00;1.25
76238;PMS7003;65043;48.392;-4.472;2023-08-06T08:20:34;2.75;1.00;1.00
76238;PMS7003;65043;48.392;-4.472;2023-08-06T08:23:37;5.25;1.00;1.00
76238;PMS7003;65043;48.392;-4.472;2023-08-06T08:26:07;4.50;1.75;1.00
76238;PMS7003;65043;48.392;-4.472;2023-08-06T08:28:38;2.00;1.00;1.00
76238;PMS7003;65043;48.392;-4.472;2023-08-06T08:34:06;5.00;2.00;1.00
76238;PMS7003;65043;48.392;-4.472;2023-08-06T08:36:36;2.75;2.75;1.00
76238;PMS7003;65043;48.392;-4.472;2023-08-06T08:42:19;2.75;2.00;1.00
76238;PMS7003;65043;48.392;-4.472;2023-08-06T08:45:39;2.75;2.50;1.50
76238;PMS7003;65043;48.392;-4.472;2023-08-06T08:48:32;2.75;2.00;1.00
76238;PMS7003;65043;48.392;-4.472;2023-08-06T08:51:05;2.00;2.00;1.00
76238;PMS7003;65043;48.392;-4.472;2023-08-06T08:53:34;5.75;2.50;1.75
76238;PMS7003;65043;48.392;-4.472;2023-08-06T08:56:13;1.00;1.00;1.00
76238;PMS7003;65043;48.392;-4.472;2023-08-06T08:58:58;2.00;1.50;1.00
76238;PMS7003;65043;48.392;-4.472;2023-08-06T09:01:37;2.00;1.00;1.00
76238;PMS7003;65043;48.392;-4.472;2023-08-06T09:04:20;1.00;1.00;0.00
76238;PMS7003;65043;48.392;-4.472;2023-08-06T09:06:56;5.75;3.75;1.00
76238;PMS7003;65043;48.392;-4.472;2023-08-06T09:09:28;3.00;2.00;1.00
76238;PMS7003;65043;48.392;-4.472;2023-08-06T09:12:16;3.00;1.25;1.00
76238;PMS7003;65043;48.392;-4.472;2023-08-06T09:14:44;1.25;1.00;0.00
76238;PMS7003;65043;48.392;-4.472;2023-08-06T09:17:23;1.00;1.00;1.00
76238;PMS7003;65043;48.392;-4.472;2023-08-06T09:20:01;1.75;1.75;0.75
76238;PMS7003;65043;48.392;-4.472;2023-08-06T09:22:39;3.50;1.25;0.25
76238;PMS7003;65043;48.392;-4.472;2023-08-06T09:25:25;1.75;1.00;0.00
76238;PMS7003;65043;48.392;-4.472;2023-08-06T09:27:53;2.50;1.00;1.00
76238;PMS7003;65043;48.392;-4.472;2023-08-06T09:30:52;0.25;0.25;0.25
76238;PMS7003;65043;48.392;-4.472;2023-08-06T09:33:19;2.75;1.50;1.00
76238;PMS7003;65043;48.392;-4.472;2023-08-06T09:36:15;3.00;1.25;1.00
76238;PMS7003;65043;48.392;-4.472;2023-08-06T09:38:51;1.50;1.50;1.00
76238;PMS7003;65043;48.392;-4.472;2023-08-06T09:41:26;2.25;2.00;1.00
76238;PMS7003;65043;48.392;-4.472;2023-08-06T09:44:17;4.00;0.75;0.25
76238;PMS7003;65043;48.392;-4.472;2023-08-06T09:46:47;2.00;1.00;1.00
76238;PMS7003;65043;48.392;-4.472;2023-08-06T09:49:39;0.25;0.25;0.25
76238;PMS7003;65043;48.392;-4.472;2023-08-06T09:52:31;1.00;1.00;1.00
76238;PMS7003;65043;48.392;-4.472;2023-08-06T09:55:06;3.00;2.50;0.75
76238;PMS7003;65043;48.392;-4.472;2023-08-06T09:57:32;2.00;1.00;1.00
76238;PMS7003;65043;48.392;-4.472;2023-08-06T10:00:24;2.00;1.50;0.50
76238;PMS7003;65043;48.392;-4.472;2023-08-06T10:02:56;0.75;0.75;0.00
76238;PMS7003;65043;48.392;-4.472;2023-08-06T10:05:35;2.50;1.00;0.75
76238;PMS7003;65043;48.392;-4.472;2023-08-06T10:08:22;2.75;1.75;0.00
76238;PMS7003;65043;48.392;-4.472;2023-08-06T10:14:26;1.00;1.00;0.00
76238;PMS7003;65043;48.392;-4.472;2023-08-06T10:17:19;0.75;0.75;0.00
76238;PMS7003;65043;48.392;-4.472;2023-08-06T10:20:07;4.25;1.00;0.50
76238;PMS7003;65043;48.392;-4.472;2023-08-06T10:23:05;0.50;0.00;0.00
76238;PMS7003;65043;48.392;-4.472;2023-08-06T10:25:40;0.50;0.25;0.00
76238;PMS7003;65043;48.392;-4.472;2023-08-06T10:28:18;0.00;0.00;0.00
76238;PMS7003;65043;48.392;-4.472;2023-08-06T10:37:44;1.75;0.00;0.00
76238;PMS7003;65043;48.392;-4.472;2023-08-06T10:40:21;0.50;0.00;0.00
76238;PMS7003;65043;48.392;-4.472;2023-08-06T10:42:52;1.75;1.00;0.75
76238;PMS7003;65043;48.392;-4.472;2023-08-06T10:45:41;0.00;0.00;0.00
76238;PMS7003;65043;48.392;-4.472;2023-08-06T10:48:41;1.25;0.00;0.00
76238;PMS7003;65043;48.392;-4.472;2023-08-06T10:51:15;5.75;0.75;0.00
76238;PMS7003;65043;48.392;-4.472;2023-08-06T10:54:04;1.00;1.00;0.00
76238;PMS7003;65043;48.392;-4.472;2023-08-06T10:56:43;1.00;1.00;0.00
76238;PMS7003;65043;48.392;-4.472;2023-08-06T10:59:35;2.00;2.00;0.75
76238;PMS7003;65043;48.392;-4.472;2023-08-06T11:02:13;3.00;1.00;0.00
76238;PMS7003;65043;48.392;-4.472;2023-08-06T11:04:52;0.50;0.00;0.00
76238;PMS7003;65043;48.392;-4.472;2023-08-06T11:07:29;1.75;1.75;0.00
76238;PMS7003;65043;48.392;-4.472;2023-08-06T11:10:24;0.50;0.50;0.00
76238;PMS7003;65043;48.392;-4.472;2023-08-06T11:13:01;1.50;1.00;0.00
76238;PMS7003;65043;48.392;-4.472;2023-08-06T11:15:37;0.50;0.00;0.00
76238;PMS7003;65043;48.392;-4.472;2023-08-06T11:18:40;1.00;1.00;1.00
76238;PMS7003;65043;48.392;-4.472;2023-08-06T11:21:20;1.00;1.00;0.50
76238;PMS7003;65043;48.392;-4.472;2023-08-06T11:24:13;1.00;1.00;1.00
76238;PMS7003;65043;48.392;-4.472;2023-08-06T11:26:59;0.00;0.00;0.00
76238;PMS7003;65043;48.392;-4.472;2023-08-06T11:32:24;0.75;0.75;0.00
76238;PMS7003;65043;48.392;-4.472;2023-08-06T11:35:15;1.00;1.00;1.00
76238;PMS7003;65043;48.392;-4.472;2023-08-06T11:37:51;1.75;1.00;0.00
76238;PMS7003;65043;48.392;-4.472;2023-08-06T11:40:51;2.00;0.75;0.00
76238;PMS7003;65043;48.392;-4.472;2023-08-06T11:43:19;1.50;0.00;0.00
76238;PMS7003;65043;48.392;-4.472;2023-08-06T11:46:05;0.25;0.25;0.00
76238;PMS7003;65043;48.392;-4.472;2023-08-06T11:48:55;2.00;1.50;0.00
76238;PMS7003;65043;48.392;-4.472;2023-08-06T11:51:29;0.50;0.50;0.00
76238;PMS7003;65043;48.392;-4.472;2023-08-06T11:54:02;1.00;1.00;0.75
76238;PMS7003;65043;48.392;-4.472;2023-08-06T11:56:48;1.50;1.00;0.50
76238;PMS7003;65043;48.392;-4.472;2023-08-06T11:59:24;3.50;0.50;0.00
76238;PMS7003;65043;48.392;-4.472;2023-08-06T12:02:22;4.75;1.00;0.50
76238;PMS7003;65043;48.392;-4.472;2023-08-06T12:05:28;0.50;0.50;0.00
76238;PMS7003;65043;48.392;-4.472;2023-08-06T12:08:12;1.00;1.00;0.00
76238;PMS7003;65043;48.392;-4.472;2023-08-06T12:10:50;1.75;1.00;1.00
76238;PMS7003;65043;48.392;-4.472;2023-08-06T12:13:26;1.00;1.00;0.00
76238;PMS7003;65043;48.392;-4.472;2023-08-06T12:16:19;0.50;0.00;0.00
76238;PMS7003;65043;48.392;-4.472;2023-08-06T12:18:59;0.75;0.75;0.00
76238;PMS7003;65043;48.392;-4.472;2023-08-06T12:21:25;1.00;1.00;0.00
76238;PMS7003;65043;48.392;-4.472;2023-08-06T12:24:03;1.25;1.00;0.00
76238;PMS7003;65043;48.392;-4.472;2023-08-06T12:26:59;2.00;1.00;0.50
76238;PMS7003;65043;48.392;-4.472;2023-08-06T12:29:46;0.50;0.00;0.00
76238;PMS7003;65043;48.392;-4.472;2023-08-06T12:32:30;0.00;0.00;0.00
76238;PMS7003;65043;48.392;-4.472;2023-08-06T12:35:08;1.00;1.00;0.00
76238;PMS7003;65043;48.392;-4.472;2023-08-06T12:37:41;1.25;1.00;0.00
76238;PMS7003;65043;48.392;-4.472;2023-08-06T12:40:29;0.00;0.00;0.00
76238;PMS7003;65043;48.392;-4.472;2023-08-06T12:43:00;1.00;1.00;0.00
76238;PMS7003;65043;48.392;-4.472;2023-08-06T12:45:30;1.00;1.00;1.00
76238;PMS7003;65043;48.392;-4.472;2023-08-06T12:48:20;1.00;1.00;0.00
76238;PMS7003;65043;48.392;-4.472;2023-08-06T12:51:26;0.25;0.25;0.00
76238;PMS7003;65043;48.392;-4.472;2023-08-06T12:54:02;2.00;0.00;0.00
76238;PMS7003;65043;48.392;-4.472;2023-08-06T12:57:01;2.00;0.50;0.00
76238;PMS7003;65043;48.392;-4.472;2023-08-06T12:59:51;1.50;1.00;1.00
76238;PMS7003;65043;48.392;-4.472;2023-08-06T13:02:41;1.25;1.25;0.50
76238;PMS7003;65043;48.392;-4.472;2023-08-06T13:08:30;1.25;1.25;1.00
76238;PMS7003;65043;48.392;-4.472;2023-08-06T13:11:26;1.25;1.25;1.00
76238;PMS7003;65043;48.392;-4.472;2023-08-06T13:20:14;1.00;1.00;0.00
76238;PMS7003;65043;48.392;-4.472;2023-08-06T13:22:52;1.00;1.00;0.00
76238;PMS7003;65043;48.392;-4.472;2023-08-06T13:28:45;1.00;1.00;1.00
76238;PMS7003;65043;48.392;-4.472;2023-08-06T13:31:35;1.00;1.00;0.00
76238;PMS7003;65043;48.392;-4.472;2023-08-06T13:34:03;1.75;1.75;1.00
76238;PMS7003;65043;48.392;-4.472;2023-08-06T13:36:43;0.75;0.75;0.50
76238;PMS7003;65043;48.392;-4.472;2023-08-06T13:39:53;2.00;2.00;1.00
76238;PMS7003;65043;48.392;-4.472;2023-08-06T13:42:41;1.00;1.00;1.00
76238;PMS7003;65043;48.392;-4.472;2023-08-06T13:45:40;0.25;0.25;0.25
76238;PMS7003;65043;48.392;-4.472;2023-08-06T13:48:14;1.00;1.00;0.25
76238;PMS7003;65043;48.392;-4.472;2023-08-06T13:50:51;1.00;1.00;0.25
76238;PMS7003;65043;48.392;-4.472;2023-08-06T13:53:57;1.25;1.25;1.00
76238;PMS7003;65043;48.392;-4.472;2023-08-06T13:59:42;2.50;1.00;0.00
76238;PMS7003;65043;48.392;-4.472;2023-08-06T14:05:54;2.25;2.00;1.00
76238;PMS7003;65043;48.392;-4.472;2023-08-06T14:08:43;2.00;1.00;0.00
76238;PMS7003;65043;48.392;-4.472;2023-08-06T14:11:24;2.50;2.00;2.00
76238;PMS7003;65043;48.392;-4.472;2023-08-06T14:20:52;1.25;1.00;1.00
76238;PMS7003;65043;48.392;-4.472;2023-08-06T14:23:27;1.00;1.00;0.75
76238;PMS7003;65043;48.392;-4.472;2023-08-06T14:26:15;1.25;1.25;1.00
76238;PMS7003;65043;48.392;-4.472;2023-08-06T14:28:48;3.75;1.25;0.00
76238;PMS7003;65043;48.392;-4.472;2023-08-06T14:41:12;1.50;1.50;1.00
76238;PMS7003;65043;48.392;-4.472;2023-08-06T14:44:27;2.00;1.00;0.00
76238;PMS7003;65043;48.392;-4.472;2023-08-06T14:50:17;1.25;1.25;1.00
76238;PMS7003;65043;48.392;-4.472;2023-08-06T14:53:06;5.25;1.50;1.00
76238;PMS7003;65043;48.392;-4.472;2023-08-06T14:55:54;2.75;1.00;1.00
76238;PMS7003;65043;48.392;-4.472;2023-08-06T15:02:17;2.00;0.50;0.50
76238;PMS7003;65043;48.392;-4.472;2023-08-06T15:05:03;3.75;2.50;1.00
76238;PMS7003;65043;48.392;-4.472;2023-08-06T15:07:51;1.50;1.00;0.00
76238;PMS7003;65043;48.392;-4.472;2023-08-06T15:10:39;0.75;0.75;0.00
76238;PMS7003;65043;48.392;-4.472;2023-08-06T15:13:45;2.25;1.00;1.00
76238;PMS7003;65043;48.392;-4.472;2023-08-06T15:16:17;1.00;1.00;1.00
76238;PMS7003;65043;48.392;-4.472;2023-08-06T15:18:48;1.75;1.00;0.00
76238;PMS7003;65043;48.392;-4.472;2023-08-06T15:27:32;4.75;1.25;1.00
76238;PMS7003;65043;48.392;-4.472;2023-08-06T15:30:05;1.25;1.25;1.00
76238;PMS7003;65043;48.392;-4.472;2023-08-06T15:32:54;2.00;1.00;1.00
76238;PMS7003;65043;48.392;-4.472;2023-08-06T15:35:37;2.50;2.00;1.00
76238;PMS7003;65043;48.392;-4.472;2023-08-06T15:38:23;1.00;1.00;0.00
76238;PMS7003;65043;48.392;-4.472;2023-08-06T15:41:15;2.25;1.25;1.00
76238;PMS7003;65043;48.392;-4.472;2023-08-06T15:47:12;2.00;1.25;1.00
76238;PMS7003;65043;48.392;-4.472;2023-08-06T15:50:18;2.25;2.00;1.00
76238;PMS7003;65043;48.392;-4.472;2023-08-06T15:53:21;2.00;2.00;1.00
76238;PMS7003;65043;48.392;-4.472;2023-08-06T15:56:11;1.00;1.00;1.00
76238;PMS7003;65043;48.392;-4.472;2023-08-06T15:59:24;4.00;2.00;1.00
76238;PMS7003;65043;48.392;-4.472;2023-08-06T16:01:59;2.00;0.75;0.00
76238;PMS7003;65043;48.392;-4.472;2023-08-06T16:04:48;6.50;1.25;1.00
76238;PMS7003;65043;48.392;-4.472;2023-08-06T16:07:29;4.75;2.50;1.00
76238;PMS7003;65043;48.392;-4.472;2023-08-06T16:10:00;3.00;1.00;0.00
76238;PMS7003;65043;48.392;-4.472;2023-08-06T16:12:46;2.50;1.00;1.00
76238;PMS7003;65043;48.392;-4.472;2023-08-06T16:15:36;3.75;2.75;1.00